METAR Data
IDs: Format: Raw Decoded Include TAF

Data at: 1143 UTC 16 Oct 2018

PANC 161053Z VRB06KT 10SM -RA BKN065 OVC080 09/07 A2922 RMK AO2 SLP897 P0004 T00890072
PANC 160953Z 28005KT 10SM -RA FEW003 BKN075 OVC095 08/07 A2923 RMK AO2 SLP901 P0001 T00830072
PANC 160853Z 31007KT 10SM -RA FEW003 OVC070 08/07 A2925 RMK AO2 SLP906 P0004 60007 T00780067 400780039 56011
PANC 160753Z 31006KT 10SM -RA FEW003 FEW007 OVC070 07/06 A2925 RMK AO2 SLP907 P0002 T00720061
PANC 160653Z 33006KT 10SM -RA FEW003 FEW007 OVC075 07/06 A2926 RMK AO2 SLP911 P0001 T00720056
PANC 160553Z 33007KT 10SM -RA FEW003 FEW007 OVC070 07/06 A2928 RMK AO2 SLP917 P0007 60020 T00670056 10067 20061 56019
PANC 160453Z 35006KT 10SM -RA FEW003 FEW007 OVC070 06/05 A2929 RMK AO2 SLP920 P0005 T00610050
PANC 160353Z 34005KT 7SM RA FEW007 SCT015 OVC070 06/04 A2932 RMK AO2 SLP930 P0005 T00610044
PANC 160311Z 36005KT 10SM -RA FEW007 SCT015 OVC070 06/04 A2933 RMK AO2 P0001 T00610039
PANC 160253Z 35006KT 10SM -RA FEW015 BKN060 OVC075 06/04 A2934 RMK AO2 SLP936 P0002 60003 T00610039 56032
PANC 160153Z 35006KT 10SM -RA SCT060 OVC075 06/03 A2936 RMK AO2 SLP943 P0000 T00610033
PANC 160053Z 01006KT 10SM -RA SCT060 OVC085 06/03 A2939 RMK AO2 SLP955 P0001 T00610033
PANC 152353Z 35010KT 10SM -RA SCT060 OVC085 06/02 A2943 RMK AO2 SLP968 P0000 60003 T00610022 10061 20050 58034
PANC 152253Z 36006KT 10SM -RA SCT060 BKN070 OVC090 06/02 A2947 RMK AO2 RAB41 SLP980 P0000 T00560017
PANC 152153Z 33008G17KT 10SM BKN060 OVC100 06/02 A2951 RMK AO2 SLP995 T00560017
PANC 152053Z 33008KT 10SM BKN070 OVC100 06/01 A2953 RMK AO2 RAE22 SLP002 P0002 60003 T00560011 58026
PANC 151953Z 02003KT 10SM -RA OVC090 05/01 A2956 RMK AO2 RAB21 SLP012 P0001 T00500011
PANC 151853Z 35010KT 10SM SCT080 OVC095 06/01 A2960 RMK AO2 SLP024 VIRGA ALQDS T00560006
PANC 151753Z 34009KT 10SM FEW070 BKN110 OVC140 05/01 A2961 RMK AO2 SLP028 T00500006 10056 20039 56016
PANC 151653Z 36004KT 10SM FEW085 OVC140 05/M01 A2962 RMK AO2 SLP031 T00501006
PANC 151553Z 03007KT 10SM FEW085 SCT140 05/00 A2964 RMK AO2 SLP040 T00500000
PANC 151453Z 01006KT 10SM FEW085 SCT140 04/00 A2966 RMK AO2 SLP044 T00440000 56016
PANC 151353Z 36007KT 10SM SCT140 04/01 A2966 RMK AO2 SLP046 T00440006
PANC 151253Z 35006KT 10SM CLR 04/01 A2967 RMK AO2 SLP049 T00390006
PANC 151153Z 34008KT 10SM CLR 04/01 A2970 RMK AO2 SLP061 T00390006 10061 20039 55004
PANC 151053Z 35006KT 10SM CLR 04/02 A2969 RMK AO2 SLP055 T00440022
PANC 150953Z 01006KT 10SM CLR 04/02 A2972 RMK AO2 SLP064 T00440017
PANC 150853Z 36005KT 10SM SCT110 05/03 A2972 RMK AO2 SLP065 T00500028 400940044 58006
PANC 150753Z 01007KT 10SM SCT110 06/03 A2972 RMK AO2 SLP067 T00560033
PANC 150653Z 35004KT 10SM FEW007 SCT150 SCT180 06/03 A2974 RMK AO2 SLP072 T00560033
PANC 150553Z 01003KT 10SM FEW007 SCT095 BKN150 06/04 A2974 RMK AO2 SLP071 T00610039 10094 20061 55008
PANC 150453Z 02006KT 10SM FEW007 SCT095 BKN110 07/04 A2973 RMK AO2 SLP070 LOW ST SW-W T00670044
PANC 150449Z 36005KT 10SM FEW007 SCT095 BKN110 07/04 A2973 RMK AO2 LOW ST SW-W
PANC 150353Z 01006KT 10SM SCT095 OVC140 07/04 A2975 RMK AO2 SLP075 T00720039
PANC 150253Z 01004KT 10SM SCT095 BKN120 OVC160 07/04 A2976 RMK AO2 SLP080 T00720039 55008
PANC 150153Z 36007KT 10SM SCT120 BKN160 BKN200 08/04 A2976 RMK AO2 SLP079 T00780039
PANC 150053Z 36005KT 10SM FEW120 SCT160 BKN200 09/04 A2977 RMK AO2 SLP082 T00940039
PANC 142353Z 01007KT 10SM FEW007 FEW095 BKN200 09/03 A2979 RMK AO2 SLP087 LOW ST W-N T00890033 10089 20044 56027